createdAt,value
2018-11-14T00:00:22.321Z,11.20
2018-11-14T00:02:51.542Z,13.53
2018-11-14T00:05:20.110Z,21.02
2018-11-14T00:07:48.619Z,54.70
2018-11-14T00:10:17.825Z,13.30
2018-11-14T00:12:46.341Z,16.95
2018-11-14T00:15:16.141Z,21.05
2018-11-14T00:17:45.779Z,7.95
2018-11-14T00:20:14.791Z,7.95
2018-11-14T00:22:44.348Z,9.73
2018-11-14T00:25:13.031Z,7.78
2018-11-14T00:27:41.607Z,14.68
2018-11-14T00:30:18.435Z,8.08
2018-11-14T00:32:46.789Z,16.23
2018-11-14T00:35:15.481Z,10.10
2018-11-14T00:37:44.554Z,14.05
2018-11-14T00:40:14.490Z,23.52
2018-11-14T00:42:43.793Z,13.05
2018-11-14T00:45:14.425Z,8.78
2018-11-14T00:47:44.208Z,13.18
2018-11-14T00:50:13.826Z,18.95
2018-11-14T00:52:42.901Z,9.98
2018-11-14T00:55:20.340Z,6.87
2018-11-14T00:57:49.789Z,10.08
2018-11-14T01:00:22.759Z,8.88
2018-11-14T01:02:51.325Z,5.90
2018-11-14T01:05:20.261Z,6.28
2018-11-14T01:07:48.787Z,6.25
2018-11-14T01:10:18.663Z,5.28
2018-11-14T01:12:47.770Z,11.73
2018-11-14T01:15:18.074Z,5.75
2018-11-14T01:17:46.590Z,8.85
2018-11-14T01:20:18.290Z,5.47
2018-11-14T01:22:47.109Z,9.88
2018-11-14T01:25:16.383Z,14.33
2018-11-14T01:27:45.234Z,10.25
2018-11-14T01:30:17.681Z,15.88
2018-11-14T01:32:47.053Z,13.08
2018-11-14T01:35:16.238Z,65.22
2018-11-14T01:37:44.780Z,34.15
2018-11-14T01:40:16.261Z,25.10
2018-11-14T01:42:46.515Z,23.70
2018-11-14T01:45:15.061Z,15.70
2018-11-14T01:47:43.790Z,16.00
2018-11-14T01:50:12.517Z,12.70
2018-11-14T01:52:41.112Z,10.65
2018-11-14T01:55:11.962Z,5.95
2018-11-14T01:57:40.596Z,12.90
2018-11-14T02:00:14.713Z,10.88
2018-11-14T02:02:43.285Z,9.70
2018-11-14T02:05:12.210Z,18.05
2018-11-14T02:07:40.773Z,24.98
2018-11-14T02:10:11.572Z,12.53
2018-11-14T02:12:40.533Z,16.02
2018-11-14T02:15:11.136Z,13.50
2018-11-14T02:17:39.923Z,7.15
2018-11-14T02:20:09.046Z,17.00
2018-11-14T02:22:37.681Z,11.75
2018-11-14T02:25:07.304Z,7.45
2018-11-14T02:27:35.876Z,8.20
2018-11-14T02:30:05.069Z,10.30
2018-11-14T02:32:33.603Z,4.80
2018-11-14T02:35:02.143Z,4.90
2018-11-14T02:37:30.723Z,9.78
2018-11-14T02:39:59.278Z,6.25
2018-11-14T02:42:27.829Z,5.05
2018-11-14T02:44:56.410Z,4.67
2018-11-14T02:47:25.061Z,4.78
2018-11-14T02:49:53.675Z,5.03
2018-11-14T02:52:22.210Z,13.80
2018-11-14T02:54:50.790Z,5.05
2018-11-14T02:57:19.353Z,3.77
2018-11-14T02:59:47.932Z,9.83
2018-11-14T03:02:16.518Z,6.75
2018-11-14T03:04:45.066Z,7.53
2018-11-14T03:07:13.593Z,4.87
2018-11-14T03:09:42.421Z,5.42
2018-11-14T03:12:10.995Z,9.13
2018-11-14T03:14:39.587Z,9.10
2018-11-14T03:17:08.174Z,8.60
2018-11-14T03:19:36.752Z,7.33
2018-11-14T03:22:05.374Z,5.65
2018-11-14T03:24:33.951Z,8.90
2018-11-14T03:27:02.505Z,11.53
2018-11-14T03:29:31.047Z,8.23
2018-11-14T03:31:59.617Z,9.73
2018-11-14T03:34:28.133Z,8.65
2018-11-14T03:36:56.758Z,14.70
2018-11-14T03:39:25.426Z,5.95
2018-11-14T03:41:53.977Z,6.78
2018-11-14T03:44:22.506Z,4.03
2018-11-14T03:46:51.056Z,4.05
2018-11-14T03:49:19.601Z,5.97
2018-11-14T03:51:48.183Z,4.62
2018-11-14T03:54:16.750Z,12.88
2018-11-14T03:56:45.288Z,13.53
2018-11-14T03:59:13.806Z,17.48
2018-11-14T04:01:42.361Z,5.33
2018-11-14T04:04:10.961Z,7.95
2018-11-14T04:06:39.532Z,18.00
2018-11-14T04:09:10.387Z,6.17
2018-11-14T04:11:39.128Z,7.50
2018-11-14T04:14:07.686Z,9.93
2018-11-14T04:16:36.227Z,12.15
2018-11-14T04:19:05.431Z,8.63
2018-11-14T04:21:33.997Z,6.33
2018-11-14T04:24:02.614Z,4.55
2018-11-14T04:26:31.130Z,8.15
2018-11-14T04:28:59.689Z,6.92
2018-11-14T04:31:28.373Z,6.60
2018-11-14T04:33:56.920Z,6.53
2018-11-14T04:36:25.534Z,8.35
2018-11-14T04:38:54.070Z,3.98
2018-11-14T04:41:22.654Z,24.32
2018-11-14T04:43:51.181Z,7.65
2018-11-14T04:46:19.833Z,12.23
2018-11-14T04:48:48.387Z,10.00
2018-11-14T04:51:16.890Z,10.90
2018-11-14T04:53:45.522Z,13.22
2018-11-14T04:56:14.054Z,9.28
2018-11-14T04:58:42.637Z,15.10
2018-11-14T05:01:11.345Z,10.88
2018-11-14T05:03:39.988Z,12.55
2018-11-14T05:06:08.510Z,7.60
2018-11-14T05:08:37.050Z,8.78
2018-11-14T05:11:06.179Z,7.85
2018-11-14T05:13:34.682Z,7.60
2018-11-14T05:16:03.333Z,8.58
2018-11-14T05:18:31.950Z,9.40
2018-11-14T05:21:00.497Z,7.35
2018-11-14T05:23:29.045Z,11.93
2018-11-14T05:25:57.665Z,16.90
2018-11-14T05:28:26.271Z,9.73
2018-11-14T05:30:54.828Z,10.90
2018-11-14T05:33:23.349Z,8.50
2018-11-14T05:35:51.894Z,6.35
2018-11-14T05:38:20.525Z,10.08
2018-11-14T05:40:49.141Z,9.55
2018-11-14T05:43:17.859Z,15.55
2018-11-14T05:45:46.405Z,11.08
2018-11-14T05:48:14.989Z,8.78
2018-11-14T05:50:43.550Z,14.13
2018-11-14T05:53:12.073Z,8.83
2018-11-14T05:55:40.613Z,11.93
2018-11-14T05:58:09.239Z,10.90
2018-11-14T06:00:37.789Z,12.43
2018-11-14T06:03:06.389Z,8.98
2018-11-14T06:05:35.000Z,14.83
2018-11-14T06:08:03.533Z,9.60
2018-11-14T06:10:32.109Z,13.38
2018-11-14T06:13:00.683Z,22.65
2018-11-14T06:15:29.359Z,7.55
2018-11-14T06:17:58.841Z,12.65
2018-11-14T06:20:27.346Z,10.08
2018-11-14T06:22:55.918Z,11.10
2018-11-14T06:25:28.436Z,7.70
2018-11-14T06:27:57.873Z,11.50
2018-11-14T06:30:26.733Z,10.45
2018-11-14T06:32:55.896Z,19.42
2018-11-14T06:35:24.633Z,17.67
2018-11-14T06:37:53.734Z,18.60
2018-11-14T06:40:22.257Z,16.15
2018-11-14T06:42:50.871Z,18.27
2018-11-14T06:45:20.715Z,25.62
2018-11-14T06:47:50.735Z,18.52
2018-11-14T06:50:19.263Z,22.48
2018-11-14T06:52:48.936Z,15.90
2018-11-14T06:55:18.114Z,16.52
2018-11-14T06:57:46.648Z,33.08
2018-11-14T07:00:25.063Z,21.17
2018-11-14T07:02:54.205Z,48.60
2018-11-14T07:05:22.865Z,23.35
2018-11-14T07:07:51.395Z,20.77
2018-11-14T07:10:22.534Z,21.73
2018-11-14T07:12:51.074Z,22.55
2018-11-14T07:15:20.945Z,39.98
2018-11-14T07:17:50.372Z,23.87
2018-11-14T07:20:22.664Z,27.45
2018-11-14T07:22:51.263Z,24.25
2018-11-14T07:25:19.842Z,32.48
2018-11-14T07:27:48.446Z,16.25
2018-11-14T07:30:18.752Z,24.23
2018-11-14T07:32:48.761Z,32.93
2018-11-14T07:35:17.970Z,29.35
2018-11-14T07:38:58.210Z,34.58
2018-11-14T07:41:31.097Z,21.95
2018-11-14T07:43:59.889Z,27.50
2018-11-14T07:46:29.510Z,16.62
2018-11-14T07:48:58.434Z,21.25
2018-11-14T07:51:26.963Z,27.80
2018-11-14T07:53:55.537Z,31.62
2018-11-14T07:56:24.094Z,25.55
2018-11-14T07:58:52.657Z,38.85
2018-11-14T08:01:21.263Z,22.82
2018-11-14T08:03:49.891Z,29.65
2018-11-14T08:06:18.687Z,30.37
2018-11-14T08:08:47.505Z,23.02
2018-11-14T08:11:16.089Z,29.45
2018-11-14T08:13:46.045Z,33.18
2018-11-14T08:16:14.946Z,20.70
2018-11-14T08:18:43.518Z,32.67
2018-11-14T08:21:12.206Z,19.15
2018-11-14T08:23:40.989Z,20.72
2018-11-14T08:26:09.547Z,24.43
2018-11-14T08:28:38.218Z,21.75
2018-11-14T08:31:06.834Z,18.75
2018-11-14T08:33:35.431Z,35.15
2018-11-14T08:36:04.026Z,30.35
2018-11-14T08:38:32.602Z,22.05
2018-11-14T08:41:01.190Z,25.05
2018-11-14T08:43:29.730Z,26.55
2018-11-14T08:45:58.330Z,14.73
2018-11-14T08:48:26.894Z,17.98
2018-11-14T08:50:55.494Z,18.05
2018-11-14T08:53:24.049Z,29.48
2018-11-14T08:55:52.588Z,16.70
2018-11-14T08:58:21.124Z,12.95
2018-11-14T09:00:49.793Z,16.52
2018-11-14T09:03:18.326Z,11.22
2018-11-14T09:05:46.946Z,13.15
2018-11-14T09:08:15.486Z,13.88
2018-11-14T09:10:44.054Z,9.80
2018-11-14T09:13:14.594Z,18.62
2018-11-14T09:15:43.360Z,12.70
2018-11-14T09:18:11.981Z,13.70
2018-11-14T09:20:40.722Z,14.85
2018-11-14T09:23:09.435Z,22.22
2018-11-14T09:25:38.001Z,15.55
2018-11-14T09:28:06.857Z,35.30
2018-11-14T09:30:35.414Z,28.85
2018-11-14T09:33:04.044Z,23.00
2018-11-14T09:35:32.815Z,16.73
2018-11-14T09:38:01.928Z,16.12
2018-11-14T09:40:30.935Z,28.60
2018-11-14T09:42:59.694Z,20.55
2018-11-14T09:45:29.537Z,16.35
2018-11-14T09:47:58.373Z,21.70
2018-11-14T09:50:28.245Z,21.02
2018-11-14T09:52:59.196Z,22.80
2018-11-14T09:55:27.773Z,16.85
2018-11-14T09:57:56.390Z,15.95
2018-11-14T10:00:27.150Z,22.50
2018-11-14T10:02:57.750Z,16.95
2018-11-14T10:05:26.473Z,19.48
2018-11-14T10:07:55.072Z,12.75
2018-11-14T10:10:24.119Z,19.35
2018-11-14T10:12:52.706Z,20.43
2018-11-14T10:15:22.567Z,18.37
2018-11-14T10:17:51.097Z,31.57
2018-11-14T10:20:20.909Z,18.02
2018-11-14T10:22:49.589Z,13.48
2018-11-14T10:25:18.571Z,22.15
2018-11-14T10:27:47.886Z,21.20
2018-11-14T10:30:21.295Z,29.57
2018-11-14T10:32:50.489Z,25.37
2018-11-14T10:35:19.145Z,26.93
2018-11-14T10:37:47.778Z,20.68
2018-11-14T10:40:19.245Z,34.75
2018-11-14T10:42:47.832Z,27.50
2018-11-14T10:45:17.695Z,28.32
2018-11-14T10:47:46.286Z,27.27
2018-11-14T10:50:17.525Z,31.15
2018-11-14T10:52:46.124Z,25.95
2018-11-14T10:55:15.389Z,29.20
2018-11-14T10:57:43.962Z,33.75
2018-11-14T11:00:19.705Z,26.87
2018-11-14T11:03:54.232Z,30.43
2018-11-14T11:06:27.971Z,31.23
2018-11-14T11:09:01.926Z,29.75
2018-11-14T11:11:34.752Z,24.75
2018-11-14T11:14:08.798Z,25.12
2018-11-14T11:16:41.577Z,28.40
2018-11-14T11:19:10.289Z,26.12
2018-11-14T11:21:38.823Z,19.00
2018-11-14T11:24:07.420Z,16.60
2018-11-14T11:26:36.798Z,15.75
2018-11-14T11:29:06.227Z,30.32
2018-11-14T11:31:34.855Z,19.07
2018-11-14T11:34:03.645Z,18.42
2018-11-14T11:36:32.246Z,18.15
2018-11-14T11:39:01.321Z,17.12
2018-11-14T11:41:29.870Z,13.35
2018-11-14T11:43:58.607Z,17.45
2018-11-14T11:46:27.237Z,14.20
2018-11-14T11:48:55.810Z,22.42
2018-11-14T11:51:24.373Z,14.10
2018-11-14T11:53:53.051Z,15.88
2018-11-14T11:56:21.701Z,14.53
2018-11-14T11:58:50.376Z,17.67
2018-11-14T12:01:18.925Z,18.77
2018-11-14T12:03:47.453Z,17.52
2018-11-14T12:06:16.336Z,21.42
2018-11-14T12:08:44.916Z,16.23
2018-11-14T12:11:13.744Z,13.13
2018-11-14T12:13:42.644Z,10.23
2018-11-14T12:16:11.238Z,12.80
2018-11-14T12:18:39.869Z,11.22
2018-11-14T12:21:08.742Z,10.70
2018-11-14T12:23:37.311Z,11.03
2018-11-14T12:26:06.062Z,12.88
2018-11-14T12:28:34.912Z,12.25
2018-11-14T12:31:03.675Z,13.50
2018-11-14T12:33:32.087Z,14.80
2018-11-14T12:36:00.653Z,15.00
2018-11-14T12:38:29.295Z,13.18
2018-11-14T12:40:57.805Z,10.72
2018-11-14T12:43:26.369Z,12.25
2018-11-14T12:45:54.921Z,13.53
2018-11-14T12:48:23.557Z,10.70
2018-11-14T12:50:52.157Z,15.90
2018-11-14T12:53:20.761Z,18.12
2018-11-14T12:55:49.333Z,17.23
2018-11-14T12:58:17.937Z,14.25
2018-11-14T13:00:46.483Z,15.08
2018-11-14T13:03:15.046Z,16.55
2018-11-14T13:05:43.846Z,19.15
2018-11-14T13:08:12.491Z,18.50
2018-11-14T13:10:41.225Z,17.07
2018-11-14T13:13:09.772Z,12.18
2018-11-14T13:15:39.331Z,20.88
2018-11-14T13:18:07.999Z,20.20
2018-11-14T13:20:36.768Z,17.25
2018-11-14T13:23:05.513Z,23.90
2018-11-14T13:25:34.226Z,20.75
2018-11-14T13:28:02.902Z,17.65
2018-11-14T13:30:31.524Z,18.17
2018-11-14T13:33:00.251Z,18.55
2018-11-14T13:35:28.817Z,16.75
2018-11-14T13:37:57.479Z,16.87
2018-11-14T13:40:26.665Z,23.00
2018-11-14T13:42:55.397Z,21.20
2018-11-14T13:45:24.018Z,18.27
2018-11-14T13:47:52.734Z,15.25
2018-11-14T13:50:22.486Z,17.48
2018-11-14T13:52:51.339Z,16.67
2018-11-14T13:55:20.933Z,17.90
2018-11-14T13:57:50.737Z,22.32
2018-11-14T14:00:20.645Z,15.18
2018-11-14T14:02:50.237Z,14.23
2018-11-14T14:05:20.028Z,16.45
2018-11-14T14:07:48.707Z,18.25
2018-11-14T14:10:18.121Z,13.15
2018-11-14T14:12:48.075Z,17.20
2018-11-14T14:15:22.082Z,18.23
2018-11-14T14:17:51.036Z,20.35
2018-11-14T14:20:20.274Z,28.32
2018-11-14T14:22:48.855Z,20.37
2018-11-14T14:25:18.598Z,20.92
2018-11-14T14:27:47.282Z,16.57
2018-11-14T14:30:16.957Z,18.00
2018-11-14T14:32:46.151Z,18.70
2018-11-14T14:35:16.041Z,17.23
2018-11-14T14:37:44.708Z,15.30
2018-11-14T14:40:15.282Z,16.42
2018-11-14T14:42:44.133Z,12.45
2018-11-14T14:45:14.134Z,14.78
2018-11-14T14:47:42.872Z,17.15
2018-11-14T14:50:13.547Z,15.93
2018-11-14T14:52:42.960Z,16.60
2018-11-14T14:55:17.184Z,15.48
2018-11-14T14:57:46.575Z,18.67
2018-11-14T15:00:21.893Z,21.07
2018-11-14T15:02:50.469Z,19.90
2018-11-14T15:05:19.142Z,20.97
2018-11-14T15:07:47.730Z,21.60
2018-11-14T15:10:19.433Z,21.12
2018-11-14T15:12:48.045Z,18.50
2018-11-14T15:15:17.030Z,20.30
2018-11-14T15:17:45.998Z,23.73
2018-11-14T15:20:17.109Z,18.45
2018-11-14T15:22:45.931Z,19.35
2018-11-14T15:25:16.037Z,22.52
2018-11-14T15:27:45.080Z,20.72
2018-11-14T15:30:17.562Z,23.73
2018-11-14T15:32:46.318Z,28.65
2018-11-14T15:35:14.971Z,33.05
2018-11-14T15:37:43.600Z,22.40
2018-11-14T15:40:14.241Z,29.42
2018-11-14T15:42:42.969Z,23.55
2018-11-14T15:45:13.934Z,31.50
2018-11-14T15:47:42.727Z,23.77
2018-11-14T15:50:13.031Z,21.05
2018-11-14T15:52:42.669Z,32.53
2018-11-14T15:55:12.343Z,35.15
2018-11-14T15:57:41.136Z,31.82
2018-11-14T16:00:13.654Z,28.95
2018-11-14T16:02:42.359Z,27.30
2018-11-14T16:05:13.082Z,30.35
2018-11-14T16:07:43.889Z,25.60
2018-11-14T16:10:13.720Z,25.85
2018-11-14T16:12:42.834Z,29.65
2018-11-14T16:15:12.903Z,36.03
2018-11-14T16:17:41.842Z,32.05
2018-11-14T16:20:12.236Z,30.75
2018-11-14T16:22:40.890Z,27.40
2018-11-14T16:25:12.220Z,30.80
2018-11-14T16:27:41.445Z,34.77
2018-11-14T16:30:23.282Z,26.42
2018-11-14T16:32:53.379Z,25.12
2018-11-14T16:35:22.099Z,38.02
2018-11-14T16:37:50.790Z,33.15
2018-11-14T16:40:23.622Z,32.93
2018-11-14T16:42:53.315Z,43.70
2018-11-14T16:45:22.129Z,33.00
2018-11-14T16:47:50.813Z,45.12
2018-11-14T16:50:20.297Z,40.55
2018-11-14T16:52:49.159Z,56.65
2018-11-14T16:55:19.058Z,35.83
2018-11-14T16:57:48.447Z,52.50
2018-11-14T17:00:21.132Z,42.95
2018-11-14T17:02:49.942Z,55.90
2018-11-14T17:05:19.017Z,36.63
2018-11-14T17:07:47.919Z,33.30
2018-11-14T17:10:17.916Z,47.50
2018-11-14T17:12:47.699Z,42.43
2018-11-14T17:15:18.483Z,31.50
2018-11-14T17:17:47.073Z,42.08
2018-11-14T17:20:16.685Z,38.23
2018-11-14T17:22:45.961Z,30.17
2018-11-14T17:25:15.648Z,31.45
2018-11-14T17:27:44.860Z,32.75
2018-11-14T17:30:16.699Z,37.10
2018-11-14T17:32:45.444Z,40.40
2018-11-14T17:35:14.878Z,30.43
2018-11-14T17:37:44.287Z,31.40
2018-11-14T17:40:16.314Z,34.08
2018-11-14T17:42:45.880Z,39.30
2018-11-14T17:45:17.069Z,36.30
2018-11-14T17:47:46.321Z,37.13
2018-11-14T17:50:20.957Z,38.58
2018-11-14T17:52:50.537Z,39.23
2018-11-14T17:55:20.426Z,43.10
2018-11-14T17:57:49.152Z,57.90
2018-11-14T18:00:21.089Z,29.98
2018-11-14T18:02:49.753Z,35.13
2018-11-14T18:05:19.695Z,39.05
2018-11-14T18:07:48.935Z,31.62
2018-11-14T18:10:18.913Z,79.72
2018-11-14T18:12:48.640Z,39.53
2018-11-14T18:15:18.007Z,40.85
2018-11-14T18:17:47.090Z,46.60
2018-11-14T18:20:18.258Z,42.98
2018-11-14T18:22:47.658Z,43.00
2018-11-14T18:25:16.757Z,30.50
2018-11-14T18:27:45.548Z,36.28
2018-11-14T18:30:21.945Z,41.10
2018-11-14T18:32:51.069Z,33.67
2018-11-14T18:35:20.556Z,34.45
2018-11-14T18:37:50.081Z,34.92
2018-11-14T18:40:22.863Z,35.52
2018-11-14T18:42:51.663Z,36.08
2018-11-14T18:45:24.886Z,30.80
2018-11-14T18:47:54.252Z,43.90
2018-11-14T18:50:23.465Z,39.00
2018-11-14T18:52:52.688Z,50.38
2018-11-14T18:55:23.626Z,53.85
2018-11-14T18:57:52.635Z,60.95
2018-11-14T19:00:24.763Z,49.83
2018-11-14T19:02:53.368Z,86.32
2018-11-14T19:05:21.918Z,55.55
2018-11-14T19:07:50.493Z,50.35
2018-11-14T19:10:20.979Z,45.75
2018-11-14T19:12:50.192Z,57.33
2018-11-14T19:15:20.228Z,63.40
2018-11-14T19:17:48.853Z,51.83
2018-11-14T19:20:19.815Z,56.08
2018-11-14T19:22:48.633Z,63.02
2018-11-14T19:25:19.385Z,49.10
2018-11-14T19:27:48.515Z,58.13
2018-11-14T19:30:19.643Z,71.80
2018-11-14T19:32:49.619Z,72.35
2018-11-14T19:35:18.610Z,74.77
2018-11-14T19:37:48.453Z,112.00
2018-11-14T19:40:18.625Z,61.33
2018-11-14T19:42:48.317Z,72.25
2018-11-14T19:45:22.662Z,70.30
2018-11-14T19:47:51.275Z,70.80
2018-11-14T19:50:21.989Z,72.03
2018-11-14T19:52:51.718Z,91.97
2018-11-14T19:55:21.673Z,77.00
2018-11-14T19:57:51.567Z,74.37
2018-11-14T20:00:25.672Z,69.53
2018-11-14T20:02:54.238Z,107.63
2018-11-14T20:05:23.149Z,71.30
2018-11-14T20:07:51.877Z,65.17
2018-11-14T20:10:21.765Z,72.50
2018-11-14T20:12:50.887Z,104.07
2018-11-14T20:15:21.125Z,64.07
2018-11-14T20:17:50.090Z,85.57
2018-11-14T20:20:20.127Z,103.90
2018-11-14T20:22:48.853Z,104.38
2018-11-14T20:25:17.492Z,121.05
2018-11-14T20:27:46.495Z,101.10
2018-11-14T20:30:20.173Z,104.63
2018-11-14T20:32:49.400Z,120.17
2018-11-14T20:35:19.464Z,119.90
2018-11-14T20:37:48.161Z,121.80
2018-11-14T20:40:18.018Z,145.75
2018-11-14T20:42:47.410Z,102.30
2018-11-14T20:45:26.914Z,138.70
2018-11-14T20:47:55.540Z,143.32
2018-11-14T20:50:25.124Z,196.12
2018-11-14T20:52:55.294Z,137.22
2018-11-14T20:55:24.006Z,166.70
2018-11-14T20:57:52.665Z,143.85
2018-11-14T21:00:31.794Z,138.52
2018-11-14T21:03:00.484Z,93.72
2018-11-14T21:05:29.731Z,143.07
2018-11-14T21:07:58.652Z,166.35
2018-11-14T21:10:28.717Z,215.18
2018-11-14T21:12:57.737Z,86.45
2018-11-14T21:15:27.634Z,113.35
2018-11-14T21:17:57.153Z,101.30
2018-11-14T21:20:25.744Z,184.70
2018-11-14T21:22:54.359Z,176.57
2018-11-14T21:25:23.821Z,159.20
2018-11-14T21:27:52.905Z,164.25
2018-11-14T21:30:22.833Z,139.85
2018-11-14T21:32:51.596Z,207.50
2018-11-14T21:35:22.748Z,143.90
2018-11-14T21:37:52.773Z,129.00
2018-11-14T21:40:21.354Z,204.05
2018-11-14T21:42:50.045Z,203.50
2018-11-14T21:45:20.061Z,161.62
2018-11-14T21:47:54.059Z,174.95
2018-11-14T21:50:24.061Z,168.95
2018-11-14T21:52:52.864Z,148.32
2018-11-14T21:55:21.505Z,125.05
2018-11-14T21:57:50.136Z,189.67
2018-11-14T22:00:21.157Z,210.60
2018-11-14T22:02:51.168Z,157.52
2018-11-14T22:05:19.743Z,155.75
2018-11-14T22:07:48.370Z,107.92
2018-11-14T22:10:18.074Z,150.65
2018-11-14T22:12:47.014Z,182.30
2018-11-14T22:15:16.978Z,207.52
2018-11-14T22:17:45.573Z,242.37
2018-11-14T22:20:15.567Z,156.22
2018-11-14T22:22:44.826Z,142.10
2018-11-14T22:25:14.845Z,206.07
2018-11-14T22:27:43.435Z,122.62
2018-11-14T22:30:18.962Z,190.80
2018-11-14T22:32:47.712Z,98.60
2018-11-14T22:35:17.716Z,163.75
2018-11-14T22:37:46.285Z,122.58
2018-11-14T22:40:20.489Z,175.90
2018-11-14T22:42:49.033Z,194.10
2018-11-14T22:45:19.050Z,156.18
2018-11-14T22:47:47.869Z,218.40
2018-11-14T22:50:22.473Z,117.57
2018-11-14T22:52:51.462Z,68.85
2018-11-14T22:55:21.021Z,120.62
2018-11-14T22:57:50.405Z,99.50
2018-11-14T23:00:25.486Z,105.25
2018-11-14T23:02:55.415Z,93.50
2018-11-14T23:05:24.049Z,100.05
2018-11-14T23:07:53.613Z,105.25
2018-11-14T23:10:23.081Z,60.33
2018-11-14T23:12:51.896Z,65.32
2018-11-14T23:15:21.337Z,82.92
2018-11-14T23:17:50.097Z,87.70
2018-11-14T23:20:19.166Z,107.17
2018-11-14T23:22:48.475Z,87.45
2018-11-14T23:25:17.674Z,85.10
2018-11-14T23:27:47.694Z,80.00
2018-11-14T23:30:17.185Z,150.00
2018-11-14T23:32:46.931Z,100.00
2018-11-14T23:35:17.827Z,128.35
2018-11-14T23:37:48.478Z,112.80
2018-11-14T23:40:17.080Z,80.83
2018-11-14T23:42:45.633Z,144.93
2018-11-14T23:45:15.453Z,103.05
2018-11-14T23:47:44.740Z,65.83
2018-11-14T23:50:16.133Z,77.42
2018-11-14T23:52:46.012Z,62.70
2018-11-14T23:55:15.310Z,137.25
2018-11-14T23:57:43.841Z,77.90
